Strait Of Dover, United Kingdom
Current Conditions -  °F | °C
As of 6:50 PM on Tuesday 25 Nov 2014 (Local Time) from EGMD Reporting Station
Light Rain Light Rain  
Wind Chill: 42°   Ceiling: Unl
Heat Index: 48°   Visibility: 6mi
Dew Point: 46°   Wind: 15mph
Humidity: 93%   Direction: 90°E
Pressure: 30.06"   Gusts: NA
Location:  51°N, 1.42°E
Report Text: EGMD 251850Z 09013KT 9000 -RA FEW035 09/08 Q1018
Loading
Personal Weather Stations






























Interactive Weather Map New forecast layout! Learn more

10-Day Weather Forecast

Advertisements
Track Severe Weather on mobile